createdAt,value
2022-10-11T00:00:47.370Z,1019.43
2022-10-11T00:01:47.486Z,1019.47
2022-10-11T00:02:47.600Z,1019.52
2022-10-11T00:03:47.777Z,1019.52
2022-10-11T00:04:47.945Z,1019.52
2022-10-11T00:05:48.109Z,1019.53
2022-10-11T00:06:48.270Z,1019.65
2022-10-11T00:07:48.475Z,1019.66
2022-10-11T00:08:48.600Z,1019.69
2022-10-11T00:09:48.760Z,1019.68
2022-10-11T00:10:48.922Z,1019.69
2022-10-11T00:11:49.101Z,1019.73
2022-10-11T00:12:49.270Z,1019.76
2022-10-11T00:13:49.443Z,1019.76
2022-10-11T00:14:49.591Z,1019.78
2022-10-11T00:15:49.806Z,1019.84
2022-10-11T00:16:49.975Z,1019.86
2022-10-11T00:17:50.134Z,1019.90
2022-10-11T00:18:50.295Z,1019.89
2022-10-11T00:19:50.462Z,1019.88
2022-10-11T00:20:50.620Z,1019.94
2022-10-11T00:21:50.830Z,1019.94
2022-10-11T00:22:51.021Z,1020.02
2022-10-11T00:23:51.142Z,1019.99
2022-10-11T00:24:51.326Z,1020.00
2022-10-11T00:25:51.497Z,1020.01
2022-10-11T00:26:51.681Z,1020.04
2022-10-11T00:27:51.851Z,1020.06
2022-10-11T00:28:52.058Z,1020.09
2022-10-11T00:29:52.202Z,1020.13
2022-10-11T00:30:52.379Z,1020.13
2022-10-11T00:31:52.537Z,1020.14
2022-10-11T00:32:52.697Z,1020.16
2022-10-11T00:33:52.865Z,1020.16
2022-10-11T00:34:53.029Z,1020.17
2022-10-11T00:35:53.230Z,1020.17
2022-10-11T00:36:53.355Z,1020.19
2022-10-11T00:37:53.510Z,1020.19
2022-10-11T00:38:53.701Z,1020.20
2022-10-11T00:39:53.867Z,1020.22
2022-10-11T00:40:54.044Z,1020.20
2022-10-11T00:41:54.216Z,1020.19
2022-10-11T00:42:54.381Z,1020.23
2022-10-11T00:43:54.532Z,1020.23
2022-10-11T00:44:54.691Z,1020.24
2022-10-11T00:45:54.867Z,1020.27
2022-10-11T00:46:56.021Z,1020.29
2022-10-11T00:47:55.223Z,1020.30
2022-10-11T00:48:55.371Z,1020.29
2022-10-11T00:49:55.587Z,1020.30
2022-10-11T00:50:55.757Z,1020.36
2022-10-11T00:51:55.913Z,1020.36
2022-10-11T00:52:56.114Z,1020.35
2022-10-11T00:53:56.274Z,1020.36
2022-10-11T00:54:56.464Z,1020.39
2022-10-11T00:55:56.657Z,1020.41
2022-10-11T00:56:56.813Z,1020.44
2022-10-11T00:57:56.986Z,1020.47
2022-10-11T00:58:57.146Z,1020.42
2022-10-11T00:59:57.305Z,1020.43
2022-10-11T01:00:57.533Z,1020.46
2022-10-11T01:01:57.686Z,1020.45
2022-10-11T01:02:57.861Z,1020.45
2022-10-11T01:03:58.028Z,1020.43
2022-10-11T01:05:25.137Z,1020.43
2022-10-11T01:05:59.407Z,1020.45
2022-10-11T01:06:58.587Z,1020.46
2022-10-11T01:07:58.761Z,1020.50
2022-10-11T01:08:58.934Z,1020.48
2022-10-11T01:09:59.099Z,1020.52
2022-10-11T01:10:59.277Z,1020.56
2022-10-11T01:11:59.430Z,1020.50
2022-10-11T01:12:59.593Z,1020.56
2022-10-11T01:13:59.750Z,1020.56
2022-10-11T01:14:59.919Z,1020.58
2022-10-11T01:16:00.080Z,1020.60
2022-10-11T01:17:00.289Z,1020.62
2022-10-11T01:18:00.412Z,1020.60
2022-10-11T01:19:00.610Z,1020.61
2022-10-11T01:20:00.766Z,1020.65
2022-10-11T01:21:00.931Z,1020.65
2022-10-11T01:22:01.105Z,1020.66
2022-10-11T01:23:01.262Z,1020.67
2022-10-11T01:24:06.015Z,1020.69
2022-10-11T01:25:02.613Z,1020.71
2022-10-11T01:26:02.155Z,1020.73
2022-10-11T01:27:01.990Z,1020.70
2022-10-11T01:28:02.160Z,1020.70
2022-10-11T01:29:02.324Z,1020.74
2022-10-11T01:30:02.489Z,1020.69
2022-10-11T01:31:02.646Z,1020.71
2022-10-11T01:32:02.804Z,1020.72
2022-10-11T01:33:02.990Z,1020.70
2022-10-11T01:34:03.153Z,1020.74
2022-10-11T01:35:03.315Z,1020.75
2022-10-11T01:36:03.917Z,1020.82
2022-10-11T01:37:03.666Z,1020.83
2022-10-11T01:38:03.846Z,1020.82
2022-10-11T01:39:04.007Z,1020.84
2022-10-11T01:40:04.176Z,1020.83
2022-10-11T01:41:04.362Z,1020.80
2022-10-11T01:42:04.517Z,1020.79
2022-10-11T01:43:04.719Z,1020.83
2022-10-11T01:44:04.869Z,1020.84
2022-10-11T01:45:05.076Z,1020.84
2022-10-11T01:46:05.610Z,1020.86
2022-10-11T01:47:05.390Z,1020.90
2022-10-11T01:48:05.570Z,1020.83
2022-10-11T01:49:05.741Z,1020.84
2022-10-11T01:50:05.900Z,1020.86
2022-10-11T01:51:06.051Z,1020.86
2022-10-11T01:52:06.254Z,1020.87
2022-10-11T01:53:06.426Z,1020.87
2022-10-11T01:54:06.585Z,1020.89
2022-10-11T01:55:10.514Z,1020.90
2022-10-11T01:56:07.584Z,1020.90
2022-10-11T01:57:07.158Z,1020.91
2022-10-11T01:58:07.293Z,1020.93
2022-10-11T01:59:07.454Z,1020.92
2022-10-11T02:00:07.642Z,1020.94
2022-10-11T02:01:07.869Z,1020.96
2022-10-11T02:02:07.986Z,1020.97
2022-10-11T02:03:08.189Z,1020.98
2022-10-11T02:04:08.346Z,1020.98
2022-10-11T02:05:08.512Z,1020.98
2022-10-11T02:06:08.881Z,1021.02
2022-10-11T02:07:08.893Z,1021.05
2022-10-11T02:08:09.008Z,1021.06
2022-10-11T02:09:09.198Z,1021.08
2022-10-11T02:10:09.357Z,1021.07
2022-10-11T02:11:09.569Z,1021.11
2022-10-11T02:12:09.698Z,1021.12
2022-10-11T02:13:09.891Z,1021.10
2022-10-11T02:14:10.052Z,1021.18
2022-10-11T02:15:10.228Z,1021.15
2022-10-11T02:16:10.392Z,1021.12
2022-10-11T02:17:10.570Z,1021.15
2022-10-11T02:18:10.751Z,1021.13
2022-10-11T02:19:10.940Z,1021.13
2022-10-11T02:20:11.128Z,1021.14
2022-10-11T02:21:11.290Z,1021.12
2022-10-11T02:22:11.447Z,1021.11
2022-10-11T02:23:11.627Z,1021.14
2022-10-11T02:24:11.801Z,1021.18
2022-10-11T02:25:11.961Z,1021.17
2022-10-11T02:26:12.126Z,1021.15
2022-10-11T02:27:12.292Z,1021.16
2022-10-11T02:28:12.508Z,1021.13
2022-10-11T02:29:12.631Z,1021.14
2022-10-11T02:30:12.812Z,1021.13
2022-10-11T02:31:12.992Z,1021.19
2022-10-11T02:32:13.152Z,1021.16
2022-10-11T02:33:13.326Z,1021.18
2022-10-11T02:34:13.494Z,1021.20
2022-10-11T02:35:13.655Z,1021.20
2022-10-11T02:36:13.827Z,1021.20
2022-10-11T02:37:13.985Z,1021.24
2022-10-11T02:38:14.191Z,1021.21
2022-10-11T02:39:14.347Z,1021.24
2022-10-11T02:40:14.500Z,1021.21
2022-10-11T02:41:14.685Z,1021.25
2022-10-11T02:42:14.849Z,1021.27
2022-10-11T02:43:15.036Z,1021.26
2022-10-11T02:44:15.157Z,1021.25
2022-10-11T02:45:15.326Z,1021.27
2022-10-11T02:46:17.661Z,1021.30
2022-10-11T02:47:15.653Z,1021.28
2022-10-11T02:48:15.827Z,1021.32
2022-10-11T02:49:16.010Z,1021.29
2022-10-11T02:50:16.167Z,1021.29
2022-10-11T02:51:16.343Z,1021.30
2022-10-11T02:52:16.502Z,1021.32
2022-10-11T02:53:16.684Z,1021.31
2022-10-11T02:54:16.840Z,1021.34
2022-10-11T02:55:17.051Z,1021.32
2022-10-11T02:56:17.221Z,1021.38
2022-10-11T02:57:17.352Z,1021.37
2022-10-11T02:58:17.520Z,1021.36
2022-10-11T02:59:17.710Z,1021.38
2022-10-11T03:00:17.863Z,1021.43
2022-10-11T03:01:18.130Z,1021.47
2022-10-11T03:02:18.232Z,1021.47
2022-10-11T03:03:18.414Z,1021.46
2022-10-11T03:04:18.606Z,1021.44
2022-10-11T03:05:18.802Z,1021.46
2022-10-11T03:06:18.990Z,1021.45
2022-10-11T03:07:19.145Z,1021.49
2022-10-11T03:08:19.336Z,1021.52
2022-10-11T03:09:19.488Z,1021.55
2022-10-11T03:10:19.656Z,1021.54
2022-10-11T03:11:19.845Z,1021.57
2022-10-11T03:12:20.005Z,1021.54
2022-10-11T03:13:20.176Z,1021.57
2022-10-11T03:14:20.365Z,1021.59
2022-10-11T03:15:20.539Z,1021.62
2022-10-11T03:16:20.709Z,1021.61
2022-10-11T03:17:37.313Z,1021.63
2022-10-11T03:18:22.078Z,1021.66
2022-10-11T03:19:21.235Z,1021.67
2022-10-11T03:20:21.375Z,1021.69
2022-10-11T03:21:21.568Z,1021.68
2022-10-11T03:22:21.745Z,1021.67
2022-10-11T03:23:21.913Z,1021.72
2022-10-11T03:24:22.097Z,1021.72
2022-10-11T03:25:22.261Z,1021.73
2022-10-11T03:26:22.411Z,1021.79
2022-10-11T03:27:22.570Z,1021.78
2022-10-11T03:28:22.792Z,1021.81
2022-10-11T03:29:22.955Z,1021.77
2022-10-11T03:30:23.082Z,1021.82
2022-10-11T03:31:23.255Z,1021.84
2022-10-11T03:32:23.409Z,1021.87
2022-10-11T03:33:23.574Z,1021.90
2022-10-11T03:34:23.742Z,1021.88
2022-10-11T03:35:23.907Z,1021.90
2022-10-11T03:36:24.062Z,1021.91
2022-10-11T03:37:24.257Z,1021.94
2022-10-11T03:38:24.437Z,1021.96
2022-10-11T03:39:24.614Z,1021.96
2022-10-11T03:40:24.773Z,1021.96
2022-10-11T03:41:24.935Z,1021.94
2022-10-11T03:42:25.092Z,1021.93
2022-10-11T03:43:25.283Z,1021.98
2022-10-11T03:44:25.455Z,1022.00
2022-10-11T03:45:25.620Z,1021.97
2022-10-11T03:46:25.786Z,1021.95
2022-10-11T03:47:25.946Z,1022.03
2022-10-11T03:48:26.110Z,1022.06
2022-10-11T03:49:26.327Z,1022.02
2022-10-11T03:50:26.477Z,1022.02
2022-10-11T03:51:26.651Z,1022.07
2022-10-11T03:52:26.807Z,1022.05
2022-10-11T03:53:26.981Z,1022.03
2022-10-11T03:54:27.146Z,1022.03
2022-10-11T03:55:27.323Z,1022.04
2022-10-11T03:56:27.510Z,1022.07
2022-10-11T03:57:27.632Z,1022.09
2022-10-11T03:58:27.809Z,1022.10
2022-10-11T03:59:27.958Z,1022.14
2022-10-11T04:00:28.132Z,1022.13
2022-10-11T04:01:28.293Z,1022.18
2022-10-11T04:02:28.443Z,1022.13
2022-10-11T04:03:28.633Z,1022.19
2022-10-11T04:04:28.804Z,1022.17
2022-10-11T04:05:28.968Z,1022.19
2022-10-11T04:06:29.120Z,1022.21
2022-10-11T04:07:29.282Z,1022.22
2022-10-11T04:08:29.466Z,1022.25
2022-10-11T04:09:29.685Z,1022.29
2022-10-11T04:10:29.851Z,1022.29
2022-10-11T04:11:30.002Z,1022.33
2022-10-11T04:12:30.191Z,1022.34
2022-10-11T04:13:30.406Z,1022.30
2022-10-11T04:14:30.554Z,1022.30
2022-10-11T04:15:30.736Z,1022.33
2022-10-11T04:16:30.898Z,1022.33
2022-10-11T04:17:31.059Z,1022.33
2022-10-11T04:18:31.225Z,1022.33
2022-10-11T04:19:31.416Z,1022.34
2022-10-11T04:20:31.545Z,1022.32
2022-10-11T04:21:31.793Z,1022.34
2022-10-11T04:22:31.914Z,1022.41
2022-10-11T04:23:32.056Z,1022.42
2022-10-11T04:24:32.236Z,1022.40
2022-10-11T04:25:32.387Z,1022.40
2022-10-11T04:26:32.547Z,1022.45
2022-10-11T04:27:32.747Z,1022.44
2022-10-11T04:28:32.930Z,1022.44
2022-10-11T04:29:33.097Z,1022.49
2022-10-11T04:30:33.254Z,1022.50
2022-10-11T04:31:33.420Z,1022.48
2022-10-11T04:33:48.647Z,1022.52
2022-10-11T04:34:48.817Z,1022.56
2022-10-11T04:35:48.967Z,1022.53
2022-10-11T04:36:50.090Z,1022.52
2022-10-11T04:37:49.318Z,1022.55
2022-10-11T04:38:49.482Z,1022.62
2022-10-11T04:39:49.650Z,1022.61
2022-10-11T04:40:49.799Z,1022.66
2022-10-11T04:41:50.051Z,1022.62
2022-10-11T04:42:50.122Z,1022.64
2022-10-11T04:43:50.291Z,1022.61
2022-10-11T04:44:50.472Z,1022.67
2022-10-11T04:45:55.248Z,1022.64
2022-10-11T04:46:51.814Z,1022.65
2022-10-11T04:47:50.991Z,1022.68
2022-10-11T04:48:51.151Z,1022.65
2022-10-11T04:49:51.342Z,1022.67
2022-10-11T04:50:51.463Z,1022.65
2022-10-11T04:51:51.652Z,1022.72
2022-10-11T04:52:51.815Z,1022.68
2022-10-11T04:53:51.973Z,1022.72
2022-10-11T04:54:52.143Z,1022.69
2022-10-11T04:55:52.304Z,1022.72
2022-10-11T04:56:52.462Z,1022.75
2022-10-11T04:57:52.626Z,1022.78
2022-10-11T04:58:52.789Z,1022.76
2022-10-11T04:59:52.970Z,1022.79
2022-10-11T05:00:53.116Z,1022.76
2022-10-11T05:01:53.370Z,1022.79
2022-10-11T05:02:53.484Z,1022.81
2022-10-11T05:03:53.685Z,1022.81
2022-10-11T05:04:53.855Z,1022.83
2022-10-11T05:05:54.046Z,1022.87
2022-10-11T05:06:54.200Z,1022.89
2022-10-11T05:07:54.356Z,1022.87
2022-10-11T05:08:54.527Z,1022.90
2022-10-11T05:09:54.690Z,1022.93
2022-10-11T05:10:54.855Z,1022.99
2022-10-11T05:11:55.007Z,1022.95
2022-10-11T05:12:55.158Z,1023.00
2022-10-11T05:13:55.362Z,1023.02
2022-10-11T05:14:55.519Z,1022.99
2022-10-11T05:15:55.713Z,1023.02
2022-10-11T05:16:55.875Z,1023.00
2022-10-11T05:17:56.040Z,1023.05
2022-10-11T05:18:56.202Z,1023.04
2022-10-11T05:19:56.372Z,1022.99
2022-10-11T05:20:56.526Z,1023.02
2022-10-11T05:21:56.721Z,1023.02
2022-10-11T05:22:56.882Z,1023.04
2022-10-11T05:23:57.073Z,1023.06
2022-10-11T05:24:57.232Z,1023.09
2022-10-11T05:25:57.418Z,1023.07
2022-10-11T05:27:02.343Z,1023.07
2022-10-11T05:27:58.753Z,1023.12
2022-10-11T05:28:57.944Z,1023.11
2022-10-11T05:29:58.114Z,1023.12
2022-10-11T05:30:58.283Z,1023.14
2022-10-11T05:31:58.474Z,1023.18
2022-10-11T05:32:58.615Z,1023.16
2022-10-11T05:33:58.794Z,1023.20
2022-10-11T05:34:58.985Z,1023.22
2022-10-11T05:35:59.166Z,1023.22
2022-10-11T05:36:59.355Z,1023.23
2022-10-11T05:37:59.533Z,1023.27
2022-10-11T05:38:59.709Z,1023.27
2022-10-11T05:39:59.905Z,1023.33
2022-10-11T05:41:00.074Z,1023.35
2022-10-11T05:42:00.206Z,1023.35
2022-10-11T05:43:00.386Z,1023.37
2022-10-11T05:44:00.572Z,1023.37
2022-10-11T05:45:00.765Z,1023.35
2022-10-11T05:46:00.938Z,1023.34
2022-10-11T05:47:01.100Z,1023.37
2022-10-11T05:48:01.279Z,1023.37
2022-10-11T05:49:01.448Z,1023.36
2022-10-11T05:50:01.640Z,1023.42
2022-10-11T05:51:01.788Z,1023.41
2022-10-11T05:52:01.969Z,1023.44
2022-10-11T05:53:02.141Z,1023.39
2022-10-11T05:54:02.339Z,1023.47
2022-10-11T05:55:02.479Z,1023.44
2022-10-11T05:56:02.954Z,1023.42
2022-10-11T05:57:02.819Z,1023.47
2022-10-11T05:58:03.001Z,1023.49
2022-10-11T05:59:03.179Z,1023.48
2022-10-11T06:00:03.332Z,1023.52
2022-10-11T06:01:03.557Z,1023.53
2022-10-11T06:02:03.691Z,1023.58
2022-10-11T06:03:03.861Z,1023.59
2022-10-11T06:04:04.052Z,1023.57
2022-10-11T06:05:04.243Z,1023.60
2022-10-11T06:06:04.728Z,1023.62
2022-10-11T06:07:04.560Z,1023.64
2022-10-11T06:08:04.732Z,1023.62
2022-10-11T06:09:04.924Z,1023.63
2022-10-11T06:10:05.085Z,1023.65
2022-10-11T06:11:08.165Z,1023.64
2022-10-11T06:12:06.463Z,1023.64
2022-10-11T06:13:05.618Z,1023.59
2022-10-11T06:14:05.815Z,1023.59
2022-10-11T06:15:05.974Z,1023.64
2022-10-11T06:16:06.555Z,1023.63
2022-10-11T06:17:06.287Z,1023.64
2022-10-11T06:18:06.477Z,1023.69
2022-10-11T06:19:06.657Z,1023.70
2022-10-11T06:20:06.845Z,1023.71
2022-10-11T06:21:06.996Z,1023.71
2022-10-11T06:22:07.171Z,1023.74
2022-10-11T06:23:07.346Z,1023.74
2022-10-11T06:24:07.534Z,1023.77
2022-10-11T06:25:07.690Z,1023.80
2022-10-11T06:26:08.604Z,1023.80
2022-10-11T06:27:08.047Z,1023.82
2022-10-11T06:28:08.293Z,1023.82
2022-10-11T06:29:09.400Z,1023.83
2022-10-11T06:30:08.599Z,1023.84
2022-10-11T06:31:08.779Z,1023.88
2022-10-11T06:32:08.960Z,1023.90
2022-10-11T06:33:09.139Z,1023.91
2022-10-11T06:34:09.329Z,1023.94
2022-10-11T06:35:09.503Z,1023.95
2022-10-11T06:36:09.822Z,1023.96
2022-10-11T06:37:09.860Z,1023.99
2022-10-11T06:38:10.047Z,1023.95
2022-10-11T06:39:10.206Z,1024.00
2022-10-11T06:40:10.391Z,1024.01
2022-10-11T06:41:10.531Z,1024.01
2022-10-11T06:42:10.716Z,1023.98
2022-10-11T06:43:10.892Z,1024.01
2022-10-11T06:44:14.196Z,1024.04
2022-10-11T06:45:11.235Z,1024.06
2022-10-11T06:46:11.413Z,1024.06
2022-10-11T06:47:11.597Z,1024.06
2022-10-11T06:48:11.793Z,1024.11
2022-10-11T06:49:12.004Z,1024.09
2022-10-11T06:50:12.114Z,1024.15
2022-10-11T06:51:12.305Z,1024.13
2022-10-11T06:52:12.466Z,1024.15
2022-10-11T06:53:12.630Z,1024.17
2022-10-11T06:54:12.806Z,1024.16
2022-10-11T06:55:12.946Z,1024.15
2022-10-11T06:56:13.137Z,1024.19
2022-10-11T06:57:13.315Z,1024.20
2022-10-11T06:58:13.496Z,1024.20
2022-10-11T06:59:13.697Z,1024.24
2022-10-11T07:00:13.835Z,1024.24
2022-10-11T07:01:14.225Z,1024.23
2022-10-11T07:02:14.177Z,1024.25
2022-10-11T07:03:14.358Z,1024.26
2022-10-11T07:04:14.528Z,1024.26
2022-10-11T07:05:14.687Z,1024.26
2022-10-11T07:06:14.878Z,1024.29
2022-10-11T07:07:15.056Z,1024.31
2022-10-11T07:08:15.244Z,1024.32
2022-10-11T07:09:15.423Z,1024.36
2022-10-11T07:10:15.589Z,1024.36
2022-10-11T07:11:15.773Z,1024.34
2022-10-11T07:12:15.940Z,1024.39
2022-10-11T07:13:17.366Z,1024.41
2022-10-11T07:14:16.300Z,1024.41
2022-10-11T07:15:16.440Z,1024.42
2022-10-11T07:16:16.629Z,1024.43
2022-10-11T07:17:16.820Z,1024.45
2022-10-11T07:18:16.971Z,1024.46
2022-10-11T07:19:17.401Z,1024.46
2022-10-11T07:20:17.322Z,1024.44
2022-10-11T07:21:17.502Z,1024.53
2022-10-11T07:22:17.693Z,1024.49
2022-10-11T07:23:17.865Z,1024.49
2022-10-11T07:24:18.056Z,1024.48
2022-10-11T07:25:18.213Z,1024.48
2022-10-11T07:26:18.405Z,1024.55
2022-10-11T07:27:18.595Z,1024.51
2022-10-11T07:28:18.814Z,1024.53
2022-10-11T07:29:18.953Z,1024.60
2022-10-11T07:30:19.133Z,1024.59
2022-10-11T07:31:19.296Z,1024.62
2022-10-11T07:32:19.486Z,1024.62
2022-10-11T07:33:19.683Z,1024.62
2022-10-11T07:34:19.852Z,1024.68
2022-10-11T07:35:20.027Z,1024.65
2022-10-11T07:36:20.207Z,1024.69
2022-10-11T07:37:20.397Z,1024.69
2022-10-11T07:38:20.577Z,1024.71
2022-10-11T07:39:20.776Z,1024.72
2022-10-11T07:40:20.937Z,1024.71
2022-10-11T07:41:21.108Z,1024.75
2022-10-11T07:42:21.336Z,1024.75
2022-10-11T07:43:21.476Z,1024.71
2022-10-11T07:44:21.678Z,1024.72
2022-10-11T07:45:21.836Z,1024.70
2022-10-11T07:46:21.988Z,1024.74
2022-10-11T07:47:22.158Z,1024.75
2022-10-11T07:48:22.327Z,1024.78
2022-10-11T07:49:22.521Z,1024.74
2022-10-11T07:50:22.692Z,1024.74
2022-10-11T07:51:22.890Z,1024.73
2022-10-11T07:52:23.051Z,1024.77
2022-10-11T07:53:23.231Z,1024.72
2022-10-11T07:54:23.432Z,1024.76
2022-10-11T07:55:23.602Z,1024.74
2022-10-11T07:56:23.782Z,1024.81
2022-10-11T07:57:23.964Z,1024.80
2022-10-11T07:58:24.142Z,1024.83
2022-10-11T07:59:24.571Z,1024.83
2022-10-11T08:00:24.487Z,1024.83
2022-10-11T08:01:24.720Z,1024.82
2022-10-11T08:02:24.923Z,1024.77
2022-10-11T08:03:24.975Z,1024.82
2022-10-11T08:04:25.175Z,1024.81
2022-10-11T08:05:25.305Z,1024.80
2022-10-11T08:06:25.480Z,1024.80
2022-10-11T08:07:25.657Z,1024.77
2022-10-11T08:08:25.849Z,1024.86
2022-10-11T08:09:26.036Z,1024.89
2022-10-11T08:10:26.186Z,1024.88
2022-10-11T08:11:26.373Z,1024.89
2022-10-11T08:12:26.559Z,1024.88
2022-10-11T08:13:26.739Z,1024.86
2022-10-11T08:14:26.930Z,1024.89
2022-10-11T08:15:27.073Z,1024.89
2022-10-11T08:16:27.262Z,1024.88
2022-10-11T08:17:27.449Z,1024.88
2022-10-11T08:18:27.630Z,1024.88
2022-10-11T08:19:27.840Z,1024.91
2022-10-11T08:20:27.979Z,1024.91
2022-10-11T08:21:28.162Z,1024.91
2022-10-11T08:22:28.348Z,1024.91
2022-10-11T08:23:28.542Z,1024.86
2022-10-11T08:24:28.691Z,1024.94
2022-10-11T08:25:28.891Z,1024.88
2022-10-11T08:26:29.033Z,1024.88
2022-10-11T08:27:29.208Z,1024.90
2022-10-11T08:28:29.467Z,1024.86
2022-10-11T08:29:29.553Z,1024.89
2022-10-11T08:30:29.775Z,1024.86
2022-10-11T08:31:29.933Z,1024.88
2022-10-11T08:32:30.114Z,1024.88
2022-10-11T08:33:30.333Z,1024.91
2022-10-11T08:34:30.455Z,1024.90
2022-10-11T08:35:30.645Z,1024.89
2022-10-11T08:36:30.831Z,1024.90
2022-10-11T08:37:31.015Z,1024.97
2022-10-11T08:38:31.207Z,1024.92
2022-10-11T08:39:31.384Z,1024.93
2022-10-11T08:40:35.148Z,1024.97
2022-10-11T08:41:31.747Z,1024.96
2022-10-11T08:42:31.916Z,1025.00
2022-10-11T08:43:32.118Z,1024.99
2022-10-11T08:44:46.420Z,1025.00
2022-10-11T08:45:33.440Z,1025.01
2022-10-11T08:46:32.599Z,1025.02
2022-10-11T08:47:32.780Z,1025.05
2022-10-11T08:48:33.000Z,1025.04
2022-10-11T08:49:33.160Z,1025.01
2022-10-11T08:50:33.305Z,1024.95
2022-10-11T08:51:33.480Z,1024.95
2022-10-11T08:52:33.664Z,1024.97
2022-10-11T08:53:33.841Z,1024.98
2022-10-11T08:54:34.027Z,1025.03
2022-10-11T08:55:34.186Z,1024.99
2022-10-11T08:56:34.343Z,1024.98
2022-10-11T08:57:34.522Z,1025.03
2022-10-11T08:58:34.702Z,1025.08
2022-10-11T08:59:34.874Z,1025.05
2022-10-11T09:00:35.028Z,1025.08
2022-10-11T09:01:35.282Z,1025.12
2022-10-11T09:03:02.917Z,1025.12
2022-10-11T09:03:36.533Z,1025.12
2022-10-11T09:04:35.728Z,1025.15
2022-10-11T09:05:35.896Z,1025.17
2022-10-11T09:06:36.056Z,1025.13
2022-10-11T09:07:36.234Z,1025.11
2022-10-11T09:08:36.396Z,1025.15
2022-10-11T09:09:36.566Z,1025.14
2022-10-11T09:10:36.726Z,1025.13
2022-10-11T09:11:36.936Z,1025.14
2022-10-11T09:12:40.699Z,1025.14
2022-10-11T09:13:37.267Z,1025.18
2022-10-11T09:14:37.439Z,1025.16
2022-10-11T09:15:37.619Z,1025.17
2022-10-11T09:16:37.798Z,1025.15
2022-10-11T09:17:37.958Z,1025.17
2022-10-11T09:18:38.119Z,1025.15
2022-10-11T09:19:38.286Z,1025.17
2022-10-11T09:20:38.599Z,1025.16
2022-10-11T09:21:38.640Z,1025.14
2022-10-11T09:22:38.801Z,1025.16
2022-10-11T09:23:38.961Z,1025.16
2022-10-11T09:24:39.134Z,1025.19
2022-10-11T09:25:39.292Z,1025.18
2022-10-11T09:26:39.451Z,1025.19
2022-10-11T09:28:01.304Z,1025.21
2022-10-11T09:28:40.832Z,1025.22
2022-10-11T09:29:39.943Z,1025.23
2022-10-11T09:30:40.114Z,1025.22
2022-10-11T09:31:40.274Z,1025.25
2022-10-11T09:32:40.445Z,1025.26
2022-10-11T09:33:40.630Z,1025.20
2022-10-11T09:34:40.776Z,1025.11
2022-10-11T09:35:40.936Z,1025.19
2022-10-11T09:36:41.095Z,1025.20
2022-10-11T09:37:41.262Z,1025.21
2022-10-11T09:38:41.426Z,1025.21
2022-10-11T09:39:41.590Z,1025.19
2022-10-11T09:40:41.746Z,1025.19
2022-10-11T09:41:41.938Z,1025.21
2022-10-11T09:42:42.086Z,1025.23
2022-10-11T09:43:42.258Z,1025.21
2022-10-11T09:44:42.426Z,1025.21
2022-10-11T09:45:45.716Z,1025.24
2022-10-11T09:46:43.778Z,1025.20
2022-10-11T09:47:42.974Z,1025.21
2022-10-11T09:48:43.138Z,1025.19
2022-10-11T09:49:43.346Z,1025.12
2022-10-11T09:50:43.501Z,1025.09
2022-10-11T09:51:43.681Z,1025.12
2022-10-11T09:52:43.880Z,1025.15
2022-10-11T09:53:44.042Z,1025.10
2022-10-11T09:54:44.241Z,1025.13
2022-10-11T09:55:44.393Z,1025.09
2022-10-11T09:56:44.572Z,1025.10
2022-10-11T09:57:44.754Z,1025.08
2022-10-11T09:58:44.944Z,1025.09
2022-10-11T09:59:45.119Z,1025.07
2022-10-11T10:00:45.297Z,1025.11
2022-10-11T10:01:45.532Z,1025.13
2022-10-11T10:02:45.635Z,1025.11
2022-10-11T10:03:45.829Z,1025.14
2022-10-11T10:04:45.976Z,1025.13
2022-10-11T10:05:46.156Z,1025.13
2022-10-11T10:06:46.335Z,1025.15
2022-10-11T10:07:46.513Z,1025.18
2022-10-11T10:08:46.707Z,1025.20
2022-10-11T10:09:46.852Z,1025.21
2022-10-11T10:10:47.028Z,1025.18
2022-10-11T10:11:47.207Z,1025.14
2022-10-11T10:12:47.378Z,1025.16
2022-10-11T10:13:47.577Z,1025.15
2022-10-11T10:14:47.719Z,1025.20
2022-10-11T10:15:47.941Z,1025.16
2022-10-11T10:16:48.073Z,1025.21
2022-10-11T10:17:48.269Z,1025.17
2022-10-11T10:18:48.442Z,1025.17
2022-10-11T10:19:48.620Z,1025.19
2022-10-11T10:20:48.791Z,1025.19
2022-10-11T10:21:48.976Z,1025.21
2022-10-11T10:22:49.204Z,1025.25
2022-10-11T10:23:49.344Z,1025.21
2022-10-11T10:24:49.520Z,1025.20
2022-10-11T10:25:49.705Z,1025.24
2022-10-11T10:26:49.896Z,1025.22
2022-10-11T10:27:50.074Z,1025.18
2022-10-11T10:28:50.599Z,1025.25
2022-10-11T10:29:50.393Z,1025.18
2022-10-11T10:30:50.569Z,1025.25
2022-10-11T10:32:51.925Z,1025.22
2022-10-11T10:33:51.090Z,1025.26
2022-10-11T10:34:51.246Z,1025.18
2022-10-11T10:35:51.406Z,1025.20
2022-10-11T10:36:51.578Z,1025.20
2022-10-11T10:37:51.742Z,1025.23
2022-10-11T10:38:52.412Z,1025.25
2022-10-11T10:39:52.058Z,1025.27
2022-10-11T10:40:52.219Z,1025.24
2022-10-11T10:41:52.400Z,1025.28
2022-10-11T10:42:52.538Z,1025.24
2022-10-11T10:43:52.719Z,1025.28
2022-10-11T10:44:52.911Z,1025.26
2022-10-11T10:45:53.080Z,1025.27
2022-10-11T10:46:53.281Z,1025.28
2022-10-11T10:47:53.422Z,1025.30
2022-10-11T10:49:55.304Z,1025.34
2022-10-11T10:50:53.941Z,1025.30
2022-10-11T10:51:54.122Z,1025.29
2022-10-11T10:52:54.262Z,1025.28
2022-10-11T10:53:54.436Z,1025.25
2022-10-11T10:54:54.584Z,1025.29
2022-10-11T10:55:54.764Z,1025.31
2022-10-11T10:56:54.955Z,1025.26
2022-10-11T10:57:55.106Z,1025.28
2022-10-11T10:58:55.284Z,1025.24
2022-10-11T10:59:55.443Z,1025.23
2022-10-11T11:00:55.631Z,1025.26
2022-10-11T11:01:55.873Z,1025.22
2022-10-11T11:02:56.052Z,1025.20
2022-10-11T11:03:56.132Z,1025.18
2022-10-11T11:04:56.362Z,1025.24
2022-10-11T11:05:56.492Z,1025.24
2022-10-11T11:06:56.699Z,1025.22
2022-10-11T11:07:56.835Z,1025.23
2022-10-11T11:08:57.031Z,1025.26
2022-10-11T11:09:57.178Z,1025.23
2022-10-11T11:10:57.359Z,1025.22
2022-10-11T11:11:57.550Z,1025.19
2022-10-11T11:12:57.739Z,1025.18
2022-10-11T11:13:57.901Z,1025.18
2022-10-11T11:14:58.081Z,1025.19
2022-10-11T11:15:58.249Z,1025.18
2022-10-11T11:16:58.441Z,1025.16
2022-10-11T11:17:58.601Z,1025.21
2022-10-11T11:18:58.784Z,1025.21
2022-10-11T11:19:58.976Z,1025.20
2022-10-11T11:20:59.143Z,1025.17
2022-10-11T11:21:59.345Z,1025.17
2022-10-11T11:22:59.515Z,1025.11
2022-10-11T11:23:59.695Z,1025.17
2022-10-11T11:24:59.956Z,1025.14
2022-10-11T11:26:00.056Z,1025.16
2022-10-11T11:27:00.268Z,1025.19
2022-10-11T11:28:00.425Z,1025.14
2022-10-11T11:29:00.586Z,1025.14
2022-10-11T11:30:00.746Z,1025.16
2022-10-11T11:31:00.938Z,1025.19
2022-10-11T11:32:01.107Z,1025.17
2022-10-11T11:33:01.269Z,1025.18
2022-10-11T11:34:01.409Z,1025.16
2022-10-11T11:35:01.593Z,1025.16
2022-10-11T11:36:01.877Z,1025.12
2022-10-11T11:37:01.924Z,1025.12
2022-10-11T11:38:06.227Z,1025.11
2022-10-11T11:39:02.296Z,1025.08
2022-10-11T11:40:02.476Z,1025.05
2022-10-11T11:41:02.953Z,1025.09
2022-10-11T11:42:02.800Z,1025.11
2022-10-11T11:43:03.003Z,1025.13
2022-10-11T11:44:03.170Z,1025.11
2022-10-11T11:45:03.352Z,1025.11
2022-10-11T11:46:03.530Z,1025.14
2022-10-11T11:47:03.736Z,1025.10
2022-10-11T11:48:03.866Z,1025.09
2022-10-11T11:49:04.049Z,1025.13
2022-10-11T11:50:04.235Z,1025.08
2022-10-11T11:51:04.713Z,1025.06
2022-10-11T11:52:04.565Z,1025.08
2022-10-11T11:53:04.763Z,1025.01
2022-10-11T11:54:04.910Z,1025.04
2022-10-11T11:55:05.087Z,1024.98
2022-10-11T11:56:05.292Z,1024.99
2022-10-11T11:57:05.437Z,1025.00
2022-10-11T11:58:07.223Z,1025.03
2022-10-11T11:59:05.773Z,1025.03
2022-10-11T12:00:05.959Z,1025.01
2022-10-11T12:01:06.418Z,1024.97
2022-10-11T12:02:06.387Z,1024.97
2022-10-11T12:03:06.500Z,1024.97
2022-10-11T12:04:06.680Z,1024.94
2022-10-11T12:05:06.864Z,1024.93
2022-10-11T12:06:07.052Z,1024.89
2022-10-11T12:07:22.124Z,1024.88
2022-10-11T12:08:08.412Z,1024.87
2022-10-11T12:09:07.574Z,1024.93
2022-10-11T12:10:07.764Z,1024.91
2022-10-11T12:11:08.142Z,1024.91